Oldhams, Virginia
Current Conditions -  °F | °C
As of 8:35 AM on Wednesday 22 Oct 2014 (Local Time) from KXSA Reporting Station
Overcast Overcast  
Wind Chill: 54°   Ceiling: 700
Heat Index: 54°   Visibility: 10mi
Dew Point: 49°   Wind: 6mph
Humidity: 84%   Direction: 300°WNW
Pressure: 29.88"   Gusts: NA
Location:  38°N, 76.67°W
Report Text: KXSA 221235Z AUTO 30005KT 10SM OVC007 12/10 A2988 RMK AO2 T01210095
Loading
Personal Weather Stations






























Interactive Weather Map
Tropical Storm Tracking
New forecast layout! Learn more

10-Day Weather Forecast

Advertisements
Track Severe Weather on mobile